Time;durP1;ratioP1;P1;durP2;ratioP2;P2;SDS_P1;SDS_P2;PMS_P1;PMS_P2;Temp;Humidity;BMP_temperature;BMP_pressure;BME280_temperature;BME280_humidity;BME280_pressure;Samples;Min_cycle;Max_cycle;Signal;HPM_P1;HPM_P2
2022/02/11 00:08:08;;;;;;;10.07;6.37;;;6.00;99.90;;;;;;5038234;28;20194;-79
2022/02/11 00:10:34;;;;;;;13.87;6.47;;;6.10;99.90;;;;;;5037246;28;20185;-78
2022/02/11 00:13:00;;;;;;;10.60;7.10;;;;;;;;;;5037656;28;20695;-79
2022/02/11 00:15:37;;;;;;;9.80;5.27;;;5.70;99.90;;;;;;5037302;28;20174;-78
2022/02/11 00:18:05;;;;;;;9.37;5.67;;;5.80;99.90;;;;;;5035917;28;20253;-78
2022/02/11 00:20:31;;;;;;;13.83;5.27;;;;;;;;;;5040289;28;20206;-79
2022/02/11 00:22:57;;;;;;;10.63;5.60;;;5.80;99.90;;;;;;5040427;28;20183;-79
2022/02/11 00:25:23;;;;;;;8.73;5.30;;;5.50;99.90;;;;;;5040122;28;20675;-79
2022/02/11 00:35:47;;;;;;;9.43;5.33;;;5.70;99.90;;;;;;5039341;28;20256;-79
2022/02/11 00:38:19;;;;;;;9.97;5.60;;;5.60;99.90;;;;;;5039580;28;20189;-79
2022/02/11 00:46:35;;;;;;;9.60;5.37;;;;;;;;;;5039394;28;20502;-79
2022/02/11 01:03:09;;;;;;;11.80;5.27;;;5.20;99.90;;;;;;5039321;28;20530;-79
2022/02/11 01:05:28;;;;;;;9.53;5.53;;;5.10;99.90;;;;;;5039030;28;20192;-79
2022/02/11 01:07:53;;;;;;;14.03;5.73;;;5.20;99.90;;;;;;5038438;28;20177;-79
2022/02/11 01:10:20;;;;;;;13.67;6.07;;;5.20;99.90;;;;;;5039271;28;20270;-79
2022/02/11 01:12:46;;;;;;;13.90;5.83;;;;;;;;;;5038406;28;20639;-79
2022/02/11 01:15:12;;;;;;;9.40;5.33;;;5.00;99.90;;;;;;5040279;28;20588;-79
2022/02/11 01:17:43;;;;;;;11.47;5.67;;;;;;;;;;5039641;28;20179;-79
2022/02/11 01:20:16;;;;;;;10.37;5.17;;;5.10;99.90;;;;;;5039924;28;20150;-79
2022/02/11 01:49:20;;;;;;;7.73;4.83;;;5.50;99.90;;;;;;5038898;28;20201;-79
2022/02/11 01:54:32;;;;;;;8.50;5.37;;;5.40;99.90;;;;;;5038730;28;20622;-79
2022/02/11 02:02:57;;;;;;;9.07;5.07;;;;;;;;;;5039179;28;20169;-79
2022/02/11 02:11:05;;;;;;;9.07;4.53;;;4.90;99.90;;;;;;5040986;28;20173;-79
2022/02/11 02:24:17;;;;;;;13.87;6.10;;;5.00;99.90;;;;;;5039242;28;20184;-79
2022/02/11 03:02:01;;;;;;;4.67;4.00;;;;;;;;;;5042203;28;20164;-80
2022/02/11 03:14:55;;;;;;;6.47;3.77;;;4.60;99.90;;;;;;5041635;28;20176;-79
2022/02/11 05:00:14;;;;;;;1.30;1.20;;;3.40;99.90;;;;;;5038187;28;20787;-79
2022/02/11 05:02:45;;;;;;;1.30;1.20;;;3.40;99.90;;;;;;5037133;28;20544;-79
2022/02/11 05:05:11;;;;;;;1.67;1.43;;;3.40;99.90;;;;;;5034541;28;20633;-79
2022/02/11 05:07:37;;;;;;;1.57;1.33;;;3.50;99.90;;;;;;5034695;28;20183;-79
2022/02/11 05:10:04;;;;;;;2.07;1.40;;;3.40;99.90;;;;;;5034814;28;20227;-79
2022/02/11 05:12:30;;;;;;;1.10;1.00;;;3.50;99.90;;;;;;5036220;28;20241;-79
2022/02/11 05:14:55;;;;;;;1.63;1.53;;;3.50;99.90;;;;;;5034196;28;20205;-79
2022/02/11 05:17:21;;;;;;;1.33;1.23;;;3.50;99.90;;;;;;5034187;28;20202;-79
2022/02/11 05:19:46;;;;;;;1.73;1.33;;;3.50;99.90;;;;;;5035955;28;20285;-79
2022/02/11 05:22:12;;;;;;;1.63;1.20;;;3.50;99.90;;;;;;5036078;28;20172;-79
2022/02/11 05:24:38;;;;;;;2.60;1.30;;;3.50;99.90;;;;;;5036088;28;20185;-79
2022/02/11 05:27:04;;;;;;;1.73;1.60;;;3.40;99.90;;;;;;5036084;28;20257;-79
2022/02/11 05:29:29;;;;;;;1.37;1.23;;;3.20;99.90;;;;;;5036017;28;20211;-79
2022/02/11 05:31:55;;;;;;;1.83;1.17;;;3.20;99.90;;;;;;5036228;28;20643;-79
2022/02/11 05:34:21;;;;;;;1.60;1.40;;;3.20;99.90;;;;;;5034597;28;20205;-79
2022/02/11 05:36:46;;;;;;;2.60;1.57;;;3.20;99.90;;;;;;5036500;28;20181;-79
2022/02/11 05:39:12;;;;;;;1.87;1.47;;;;;;;;;;5034913;28;20288;-79
2022/02/11 05:41:38;;;;;;;1.77;1.67;;;3.20;99.90;;;;;;5034633;28;20702;-79
2022/02/11 05:44:04;;;;;;;1.43;1.33;;;3.10;99.90;;;;;;5038718;28;20184;-79
2022/02/11 05:46:29;;;;;;;1.97;1.60;;;3.10;99.90;;;;;;5040075;28;20416;-79
2022/02/11 05:48:57;;;;;;;1.80;1.70;;;3.10;99.90;;;;;;5038682;28;20262;-79
2022/02/11 05:51:23;;;;;;;1.43;1.33;;;3.10;99.90;;;;;;5039851;28;20218;-79
2022/02/11 05:53:49;;;;;;;2.20;1.80;;;3.10;99.90;;;;;;5039359;28;20567;-80
2022/02/11 05:56:14;;;;;;;2.30;1.80;;;3.10;99.90;;;;;;5039027;28;20206;-80
2022/02/11 05:58:40;;;;;;;2.30;1.73;;;3.10;99.90;;;;;;5039463;28;20210;-79
2022/02/11 06:01:06;;;;;;;1.77;1.67;;;3.10;99.90;;;;;;5038975;28;20170;-80
2022/02/11 06:03:32;;;;;;;1.97;1.77;;;3.00;99.90;;;;;;5038893;28;20183;-79
2022/02/11 06:05:57;;;;;;;2.40;1.60;;;3.90;99.90;;;;;;5037862;28;20322;-79
2022/02/11 06:08:23;;;;;;;2.20;2.00;;;2.90;99.90;;;;;;5036661;28;20227;-79
2022/02/11 06:10:49;;;;;;;1.90;1.70;;;2.90;99.90;;;;;;5038116;28;20203;-79
2022/02/11 06:13:16;;;;;;;3.70;2.67;;;2.80;99.90;;;;;;5038663;28;20209;-79
2022/02/11 06:15:45;;;;;;;5.50;3.53;;;2.80;99.90;;;;;;5041642;28;20181;-79
2022/02/11 06:18:12;;;;;;;1.97;1.70;;;2.80;99.90;;;;;;5039873;28;20611;-79
2022/02/11 06:20:38;;;;;;;1.40;1.30;;;2.70;99.90;;;;;;5042884;28;20226;-80
2022/02/11 06:23:04;;;;;;;1.73;1.63;;;2.70;99.90;;;;;;5040278;28;20169;-80
2022/02/11 06:25:30;;;;;;;2.17;1.80;;;2.60;99.90;;;;;;5040000;28;20180;-79
2022/02/11 06:27:56;;;;;;;3.27;2.13;;;;;;;;;;5038285;28;20179;-79
2022/02/11 06:30:22;;;;;;;3.10;1.87;;;2.50;99.90;;;;;;5055962;28;20183;-79
2022/02/11 06:32:48;;;;;;;2.40;2.20;;;2.50;99.90;;;;;;5058216;28;20544;-80
2022/02/11 06:35:14;;;;;;;1.50;1.40;;;2.40;99.90;;;;;;5057834;28;20194;-78
2022/02/11 06:37:45;;;;;;;1.40;1.30;;;2.50;99.90;;;;;;5059706;28;20641;-79
2022/02/11 06:40:12;;;;;;;1.10;1.00;;;2.40;99.90;;;;;;5058312;28;20185;-78
2022/02/11 06:42:38;;;;;;;15.77;10.20;;;2.40;99.90;;;;;;5058176;28;20629;-78
2022/02/11 06:45:04;;;;;;;18.03;13.40;;;2.60;99.90;;;;;;5056617;28;20185;-78
2022/02/11 06:47:30;;;;;;;13.47;9.57;;;2.20;99.90;;;;;;5061854;28;20179;-78
2022/02/11 06:49:56;;;;;;;21.87;16.10;;;2.30;99.90;;;;;;5057366;28;20210;-79
2022/02/11 06:52:21;;;;;;;8.60;7.20;;;2.20;99.90;;;;;;5060021;28;20619;-80
2022/02/11 06:54:47;;;;;;;6.40;5.30;;;2.10;99.90;;;;;;5056870;28;20260;-78
2022/02/11 06:57:13;;;;;;;3.53;3.00;;;2.00;99.90;;;;;;5058095;28;20178;-79
2022/02/11 06:59:38;;;;;;;6.73;6.03;;;2.00;99.90;;;;;;5057978;28;20280;-79
2022/02/11 07:02:09;;;;;;;9.90;6.50;;;1.90;99.90;;;;;;5058128;28;20259;-79
2022/02/11 07:04:35;;;;;;;7.70;6.63;;;1.80;99.90;;;;;;5057501;28;20202;-79
2022/02/11 07:07:01;;;;;;;10.07;8.83;;;1.70;99.90;;;;;;5058201;28;20198;-80
2022/02/11 07:09:27;;;;;;;9.80;8.07;;;1.70;99.90;;;;;;5056678;28;20217;-79
2022/02/11 07:11:52;;;;;;;19.23;13.47;;;1.90;99.90;;;;;;5057672;28;20186;-79
2022/02/11 07:14:18;;;;;;;10.90;8.07;;;1.60;99.90;;;;;;5056749;28;20307;-79
2022/02/11 07:16:44;;;;;;;23.77;15.70;;;1.80;99.90;;;;;;5054978;28;20638;-79
2022/02/11 07:19:10;;;;;;;11.23;8.27;;;1.40;99.90;;;;;;5055462;28;20193;-79
2022/02/11 07:21:36;;;;;;;11.83;8.17;;;1.30;99.90;;;;;;5057643;28;20680;-79
2022/02/11 07:24:01;;;;;;;3.77;3.10;;;1.70;99.90;;;;;;5056118;28;20551;-79
2022/02/11 07:26:27;;;;;;;4.37;3.77;;;1.20;99.90;;;;;;5055671;28;20182;-79
2022/02/11 07:28:53;;;;;;;5.77;4.40;;;1.20;99.90;;;;;;5057447;28;20252;-80
2022/02/11 07:31:18;;;;;;;4.47;3.10;;;1.10;99.90;;;;;;5057440;28;20202;-79
2022/02/11 07:33:45;;;;;;;4.60;3.33;;;1.10;99.90;;;;;;5060025;28;20229;-79
2022/02/11 07:36:12;;;;;;;78.90;36.90;;;1.70;99.90;;;;;;5060839;28;20232;-79
2022/02/11 07:38:38;;;;;;;19.80;13.67;;;1.10;99.90;;;;;;5060548;28;20206;-79
2022/02/11 07:41:03;;;;;;;8.97;6.47;;;0.90;99.90;;;;;;5061094;28;20179;-80
2022/02/11 07:43:29;;;;;;;2.97;2.20;;;0.90;99.90;;;;;;5060522;28;20179;-80
2022/02/11 07:45:54;;;;;;;2.70;2.50;;;0.90;99.90;;;;;;5059156;28;20256;-79
2022/02/11 07:48:20;;;;;;;2.30;2.10;;;0.90;99.90;;;;;;5059777;28;20202;-80
2022/02/11 07:50:46;;;;;;;1.93;1.60;;;0.90;99.90;;;;;;5059745;28;20178;-80
2022/02/11 07:53:14;;;;;;;3.10;1.70;;;1.00;99.90;;;;;;5060494;28;20191;-80
2022/02/11 07:55:39;;;;;;;3.63;1.83;;;1.00;99.90;;;;;;5059912;28;20169;-79
2022/02/11 07:58:05;;;;;;;2.50;2.30;;;0.90;99.90;;;;;;5059742;28;20185;-80
2022/02/11 08:00:30;;;;;;;2.37;2.13;;;0.90;99.90;;;;;;5058660;28;20170;-80
2022/02/11 08:02:56;;;;;;;2.47;1.93;;;0.90;99.90;;;;;;5059154;28;20617;-79
2022/02/11 08:05:22;;;;;;;5.27;3.83;;;0.90;99.90;;;;;;5059698;28;20201;-80
2022/02/11 08:07:47;;;;;;;3.10;2.77;;;0.80;99.90;;;;;;5056699;28;20171;-80
2022/02/11 08:10:13;;;;;;;5.73;5.20;;;;;;;;;;5056082;28;20205;-80
2022/02/11 08:12:40;;;;;;;5.80;4.37;;;0.90;99.90;;;;;;5057234;28;20261;-80
2022/02/11 08:15:06;;;;;;;3.00;2.70;;;2.70;99.90;;;;;;5062662;28;20456;-80
2022/02/11 08:17:32;;;;;;;2.73;2.53;;;0.70;99.90;;;;;;5055311;28;20426;-80
2022/02/11 08:19:58;;;;;;;3.77;3.40;;;0.70;99.90;;;;;;5056949;28;20663;-80
2022/02/11 08:22:24;;;;;;;3.10;2.80;;;;;;;;;;5056458;28;20173;-80
2022/02/11 08:24:50;;;;;;;3.40;3.10;;;;;;;;;;5056407;28;20216;-79
2022/02/11 08:27:16;;;;;;;7.47;5.00;;;1.00;99.90;;;;;;5056216;28;20177;-79
2022/02/11 08:29:42;;;;;;;5.23;4.10;;;1.00;99.90;;;;;;5056445;28;20202;-79
2022/02/11 08:32:09;;;;;;;8.87;5.73;;;1.00;99.90;;;;;;5055098;28;20199;-80
2022/02/11 08:34:34;;;;;;;15.37;9.53;;;0.80;99.90;;;;;;5056357;28;20190;-80
2022/02/11 08:37:01;;;;;;;9.23;6.43;;;1.00;99.90;;;;;;5056116;28;20203;-79
2022/02/11 08:39:27;;;;;;;4.70;4.20;;;1.00;99.90;;;;;;5055391;28;20271;-79
2022/02/11 08:41:53;;;;;;;7.40;5.10;;;1.20;99.90;;;;;;5055767;28;20181;-79
2022/02/11 08:44:19;;;;;;;4.70;3.70;;;1.00;99.90;;;;;;5056559;28;20203;-80
2022/02/11 08:46:45;;;;;;;5.23;4.37;;;1.10;99.90;;;;;;5056582;28;20172;-80
2022/02/11 08:49:11;;;;;;;3.43;3.13;;;1.20;99.90;;;;;;5057106;28;20227;-79
2022/02/11 08:51:37;;;;;;;4.50;3.57;;;;;;;;;;5056278;28;20178;-79
2022/02/11 08:54:04;;;;;;;7.73;5.47;;;1.10;99.90;;;;;;5057551;28;20206;-80
2022/02/11 08:56:30;;;;;;;5.30;4.30;;;1.30;99.90;;;;;;5057089;28;20177;-80
2022/02/11 08:58:56;;;;;;;6.17;4.47;;;1.60;99.90;;;;;;5059221;28;20257;-79
2022/02/11 09:01:22;;;;;;;10.67;5.83;;;1.60;99.90;;;;;;5058214;28;20573;-79
2022/02/11 09:03:47;;;;;;;8.07;6.00;;;1.40;99.90;;;;;;5055580;28;20181;-80
2022/02/11 09:06:14;;;;;;;5.10;4.60;;;1.50;99.90;;;;;;5056296;28;20544;-80
2022/02/11 09:08:40;;;;;;;6.73;5.37;;;1.60;99.90;;;;;;5055245;28;20663;-79
2022/02/11 09:11:12;;;;;;;7.43;5.53;;;1.70;99.90;;;;;;5055337;28;20182;-79
2022/02/11 09:13:37;;;;;;;6.47;4.07;;;1.70;99.90;;;;;;5056934;28;20199;-79
2022/02/11 09:16:04;;;;;;;6.97;4.50;;;1.70;99.90;;;;;;5054973;28;20175;-79
2022/02/11 09:18:30;;;;;;;7.33;4.97;;;1.90;99.90;;;;;;5058918;28;20531;-79
2022/02/11 09:20:58;;;;;;;7.27;5.40;;;2.00;99.90;;;;;;5060754;28;20198;-79
2022/02/11 09:23:25;;;;;;;8.13;5.00;;;1.70;99.90;;;;;;5061193;28;20172;-79
2022/02/11 09:25:52;;;;;;;5.93;5.07;;;1.90;99.90;;;;;;5061830;28;20190;-79
2022/02/11 09:28:17;;;;;;;13.80;9.87;;;1.90;99.90;;;;;;5060949;28;20203;-79
2022/02/11 09:30:43;;;;;;;7.43;6.03;;;2.00;99.90;;;;;;5062900;28;20193;-79
2022/02/11 09:33:11;;;;;;;11.63;7.63;;;3.20;99.90;;;;;;5060974;28;20185;-80
2022/02/11 09:35:37;;;;;;;10.00;7.47;;;2.50;99.90;;;;;;5061183;28;20182;-80
2022/02/11 09:38:03;;;;;;;11.93;8.10;;;2.20;99.90;;;;;;5062887;28;20198;-80
2022/02/11 09:40:28;;;;;;;11.33;8.57;;;2.20;99.90;;;;;;5063545;28;20179;-80
2022/02/11 09:42:55;;;;;;;9.03;7.87;;;2.10;99.90;;;;;;5063553;28;20174;-80
2022/02/11 09:45:23;;;;;;;36.37;26.93;;;3.50;99.90;;;;;;5063940;28;20182;-80
2022/02/11 09:47:50;;;;;;;35.40;23.47;;;2.20;99.90;;;;;;5061166;28;20185;-80
2022/02/11 09:50:18;;;;;;;12.73;10.47;;;2.10;99.90;;;;;;5062655;28;20232;-80
2022/02/11 09:52:54;;;;;;;8.87;6.37;;;2.10;99.90;;;;;;5061740;28;20180;-80
2022/02/11 09:55:40;;;;;;;11.13;7.13;;;1.90;99.90;;;;;;5061073;28;20241;-80
2022/02/11 09:58:09;;;;;;;8.53;7.00;;;1.90;99.90;;;;;;5061480;28;20212;-80
2022/02/11 10:00:37;;;;;;;11.90;8.07;;;1.90;99.90;;;;;;5061714;28;20181;-79
2022/02/11 10:03:24;;;;;;;10.30;8.00;;;2.10;99.90;;;;;;5061731;28;20632;-80
2022/02/11 10:05:57;;;;;;;6.07;5.10;;;2.10;99.90;;;;;;5059479;28;20205;-80
2022/02/11 10:08:29;;;;;;;31.60;20.73;;;2.10;99.90;;;;;;5060881;28;20193;-80
2022/02/11 10:10:57;;;;;;;13.37;7.50;;;2.00;99.90;;;;;;5060914;28;20162;-79
2022/02/11 10:13:30;;;;;;;20.10;12.17;;;2.70;99.90;;;;;;5065451;28;20197;-79
2022/02/11 10:15:58;;;;;;;13.07;7.57;;;2.70;99.90;;;;;;5065882;28;20176;-80
2022/02/11 10:18:29;;;;;;;19.90;9.93;;;2.80;99.90;;;;;;5062226;28;20198;-80
2022/02/11 10:21:00;;;;;;;9.17;6.13;;;2.80;99.90;;;;;;5060447;28;20186;-80
2022/02/11 10:23:36;;;;;;;5.40;4.03;;;2.90;99.90;;;;;;5062563;28;20168;-79
2022/02/11 10:26:14;;;;;;;6.60;4.10;;;2.90;99.90;;;;;;5060687;28;20172;-80
2022/02/11 10:28:45;;;;;;;4.77;3.60;;;2.80;99.90;;;;;;5063065;28;20554;-80
2022/02/11 10:31:22;;;;;;;4.33;3.53;;;2.70;99.90;;;;;;5062663;28;20196;-80
2022/02/11 10:34:07;;;;;;;6.03;3.77;;;2.60;99.90;;;;;;5061635;28;20198;-80
2022/02/11 10:36:38;;;;;;;5.23;2.93;;;2.60;99.90;;;;;;5064052;28;20526;-80
2022/02/11 10:39:12;;;;;;;5.37;4.40;;;2.70;99.90;;;;;;5064451;28;20238;-79
2022/02/11 10:41:44;;;;;;;6.80;3.80;;;2.70;99.90;;;;;;5064832;28;20171;-80
2022/02/11 10:44:14;;;;;;;3.93;3.30;;;3.70;99.90;;;;;;5062022;28;20175;-80
2022/02/11 10:46:48;;;;;;;4.67;3.80;;;4.10;99.90;;;;;;5063923;28;20167;-80
2022/02/11 10:49:16;;;;;;;7.00;4.07;;;5.00;99.90;;;;;;5062637;28;20196;-79
2022/02/11 10:51:50;;;;;;;4.90;3.60;;;5.30;99.90;;;;;;5063773;28;20174;-78
2022/02/11 10:54:29;;;;;;;3.50;3.20;;;5.70;99.90;;;;;;5063388;28;20252;-80
2022/02/11 10:56:58;;;;;;;3.30;2.37;;;6.30;99.90;;;;;;5059650;28;20165;-80
2022/02/11 10:59:27;;;;;;;7.07;3.10;;;6.10;99.90;;;;;;5060284;28;20682;-80
2022/02/11 11:01:54;;;;;;;4.40;2.73;;;6.10;99.90;;;;;;5060372;28;20169;-79
2022/02/11 11:04:20;;;;;;;10.23;5.23;;;5.90;99.90;;;;;;5059325;28;20178;-80
2022/02/11 11:06:47;;;;;;;10.57;4.90;;;6.00;99.90;;;;;;5057626;28;20170;-80
2022/02/11 11:09:16;;;;;;;11.27;5.97;;;6.20;99.90;;;;;;5058485;28;20196;-77
2022/02/11 11:11:44;;;;;;;14.47;8.33;;;6.50;99.90;;;;;;5056568;28;20185;-77
2022/02/11 11:14:15;;;;;;;13.93;8.83;;;6.60;99.90;;;;;;5057209;28;20208;-77
2022/02/11 11:16:43;;;;;;;7.13;5.23;;;6.20;99.90;;;;;;5063979;28;20163;-77
2022/02/11 11:19:10;;;;;;;2.43;2.07;;;6.40;99.90;;;;;;5058708;28;20216;-77
2022/02/11 11:21:45;;;;;;;24.83;13.17;;;6.80;99.90;;;;;;5057270;28;20535;-77
2022/02/11 11:24:12;;;;;;;4.33;3.33;;;7.20;99.90;;;;;;5059165;28;20169;-78
2022/02/11 11:26:44;;;;;;;4.90;3.37;;;6.40;99.90;;;;;;5059159;28;20189;-78
2022/02/11 11:29:12;;;;;;;5.70;3.87;;;5.50;99.90;;;;;;5058420;28;20694;-78
2022/02/11 11:31:50;;;;;;;3.87;2.93;;;5.80;99.90;;;;;;5056533;28;20737;-78
2022/02/11 11:34:15;;;;;;;4.60;2.77;;;5.70;99.90;;;;;;5056584;28;20261;-79
2022/02/11 11:36:44;;;;;;;3.70;2.53;;;5.70;99.90;;;;;;5060173;28;20174;-78
2022/02/11 11:39:10;;;;;;;2.70;2.50;;;6.30;99.90;;;;;;5061013;28;20563;-78
2022/02/11 11:41:37;;;;;;;4.50;2.33;;;6.50;99.90;;;;;;5058528;28;20174;-79
2022/02/11 11:44:22;;;;;;;6.63;4.37;;;6.60;99.90;;;;;;5061511;28;20165;-79
2022/02/11 11:46:51;;;;;;;9.20;5.50;;;5.60;99.90;;;;;;5058273;28;20200;-77
2022/02/11 11:49:21;;;;;;;4.60;2.60;;;5.80;99.90;;;;;;5054725;28;20197;-77
2022/02/11 11:51:47;;;;;;;8.77;4.90;;;6.40;99.90;;;;;;5060188;28;20188;-78
2022/02/11 11:54:19;;;;;;;2.87;2.10;;;6.80;99.90;;;;;;5061499;28;20556;-78
2022/02/11 11:57:17;;;;;;;3.40;2.47;;;7.30;99.90;;;;;;5059748;28;20170;-79
2022/02/11 11:59:45;;;;;;;5.57;3.83;;;7.50;99.90;;;;;;5061695;28;20525;-78
2022/02/11 12:02:20;;;;;;;2.90;2.27;;;7.00;99.90;;;;;;5061240;28;20184;-78
2022/02/11 12:04:58;;;;;;;3.97;3.40;;;7.10;99.90;;;;;;5061055;28;20181;-79
2022/02/11 12:07:29;;;;;;;2.80;2.00;;;7.30;99.90;;;;;;5060269;28;20220;-78
2022/02/11 12:09:57;;;;;;;4.80;3.30;;;7.50;99.90;;;;;;5071194;28;20284;-78
2022/02/11 12:12:28;;;;;;;1.37;1.27;;;7.80;99.90;;;;;;5071919;28;20175;-78
2022/02/11 12:15:03;;;;;;;8.73;6.27;;;7.60;99.90;;;;;;5067873;28;20738;-78
2022/02/11 12:17:29;;;;;;;2.70;2.40;;;7.70;99.90;;;;;;5061762;28;20535;-79
2022/02/11 12:19:56;;;;;;;2.90;1.80;;;7.20;99.90;;;;;;5059313;28;20197;-79
2022/02/11 12:22:27;;;;;;;3.50;2.67;;;6.90;99.90;;;;;;5059988;28;20656;-79
2022/02/11 12:27:46;;;;;;;3.80;2.23;;;8.00;99.90;;;;;;5060476;28;20221;-79
2022/02/11 12:30:25;;;;;;;3.60;2.80;;;7.90;99.90;;;;;;5061530;28;20179;-79
2022/02/11 12:32:56;;;;;;;2.33;2.10;;;8.80;99.90;;;;;;5059340;28;20189;-79
2022/02/11 12:35:27;;;;;;;2.67;2.07;;;9.10;99.90;;;;;;5060523;28;20294;-79
2022/02/11 12:37:54;;;;;;;5.87;5.33;;;8.90;99.90;;;;;;5059328;28;20186;-80
2022/02/11 12:40:24;;;;;;;3.37;1.93;;;9.00;99.90;;;;;;5060037;28;20228;-80
2022/02/11 12:43:01;;;;;;;1.70;1.50;;;9.70;99.90;;;;;;5061119;28;20156;-80
2022/02/11 12:45:31;;;;;;;2.20;1.63;;;9.60;99.90;;;;;;5061170;28;20236;-79
2022/02/11 12:47:57;;;;;;;3.33;1.90;;;9.10;99.90;;;;;;5061041;28;20181;-79
2022/02/11 12:50:37;;;;;;;4.77;1.90;;;9.20;99.90;;;;;;5059611;28;20251;-79
2022/02/11 12:53:05;;;;;;;4.03;2.47;;;8.90;99.90;;;;;;5057049;28;20177;-79
2022/02/11 12:55:36;;;;;;;2.57;1.60;;;8.30;99.90;;;;;;5059119;28;20266;-79
2022/02/11 12:58:06;;;;;;;2.43;1.70;;;9.20;99.90;;;;;;5057169;28;20203;-79
2022/02/11 13:00:38;;;;;;;5.83;3.80;;;9.30;99.90;;;;;;5057098;28;20174;-79
2022/02/11 13:03:06;;;;;;;5.40;3.70;;;9.80;99.40;;;;;;5058075;28;20569;-79
2022/02/11 13:05:43;;;;;;;4.57;3.27;;;9.50;99.20;;;;;;5058279;28;20176;-79
2022/02/11 13:08:10;;;;;;;2.77;2.00;;;9.50;99.70;;;;;;5057416;28;20265;-78
2022/02/11 13:10:39;;;;;;;1.77;1.60;;;9.60;99.90;;;;;;5056852;28;20176;-79
2022/02/11 13:13:16;;;;;;;2.20;1.60;;;9.80;99.10;;;;;;5058277;28;20270;-78
2022/02/11 13:15:45;;;;;;;1.87;1.37;;;9.80;96.90;;;;;;5057441;28;20242;-79
2022/02/11 13:18:18;;;;;;;2.20;1.50;;;9.70;97.50;;;;;;5057636;28;20549;-79
2022/02/11 13:20:47;;;;;;;2.23;1.80;;;9.40;98.40;;;;;;5056415;28;20178;-78
2022/02/11 13:23:17;;;;;;;2.70;1.43;;;9.20;98.10;;;;;;5059576;28;20632;-79
2022/02/11 13:25:43;;;;;;;1.97;1.33;;;9.10;98.10;;;;;;5060689;28;20159;-79
2022/02/11 13:28:11;;;;;;;1.73;1.20;;;8.30;97.90;;;;;;5061178;28;20192;-79
2022/02/11 13:30:38;;;;;;;1.40;1.30;;;8.00;98.30;;;;;;5061778;28;20170;-79
2022/02/11 13:33:25;;;;;;;1.50;1.40;;;7.50;99.90;;;;;;5061426;28;20639;-79
2022/02/11 13:35:53;;;;;;;1.57;1.40;;;7.60;99.90;;;;;;5060451;28;20185;-79
2022/02/11 13:38:26;;;;;;;2.00;1.80;;;8.30;98.80;;;;;;5060185;28;20186;-79
2022/02/11 13:41:10;;;;;;;2.07;1.47;;;8.30;99.10;;;;;;5059051;28;20639;-79
2022/02/11 13:43:47;;;;;;;2.60;1.70;;;9.40;98.80;;;;;;5059656;28;20227;-79
2022/02/11 13:46:37;;;;;;;2.23;1.50;;;8.30;98.80;;;;;;5061238;28;20184;-79
2022/02/11 13:49:09;;;;;;;2.33;1.90;;;6.30;99.90;;;;;;5061092;28;20227;-79
2022/02/11 13:51:36;;;;;;;2.17;1.43;;;5.40;99.90;;;;;;5060087;28;20200;-79
2022/02/11 13:54:12;;;;;;;4.53;2.70;;;4.70;99.90;;;;;;5061120;28;20202;-79
2022/02/11 13:56:39;;;;;;;1.90;1.70;;;4.70;99.90;;;;;;5062182;28;20667;-79
2022/02/11 13:59:11;;;;;;;2.23;2.03;;;4.50;99.90;;;;;;5062794;28;20182;-79
2022/02/11 14:01:38;;;;;;;2.63;1.90;;;4.40;99.90;;;;;;5062040;28;20150;-79
2022/02/11 14:04:06;;;;;;;2.07;1.87;;;4.40;99.90;;;;;;5066104;28;20199;-78
2022/02/11 14:06:36;;;;;;;3.20;2.90;;;4.20;99.90;;;;;;5077955;28;20178;-78
2022/02/11 14:09:07;;;;;;;3.47;2.83;;;4.30;99.90;;;;;;5078031;28;20546;-78
2022/02/11 14:11:38;;;;;;;4.83;3.30;;;4.40;99.90;;;;;;5071915;28;20184;-79
2022/02/11 14:14:17;;;;;;;3.13;2.20;;;4.20;99.90;;;;;;5064080;28;20215;-78
2022/02/11 14:16:46;;;;;;;4.80;2.67;;;4.40;99.90;;;;;;5061650;28;20644;-78
2022/02/11 14:19:16;;;;;;;6.30;4.00;;;4.40;99.90;;;;;;5062147;28;20215;-79
2022/02/11 14:21:42;;;;;;;4.83;3.30;;;;;;;;;;5063133;28;20170;-79
2022/02/11 14:24:09;;;;;;;5.20;4.27;;;4.40;99.90;;;;;;5062009;28;20180;-79
2022/02/11 14:26:38;;;;;;;4.03;3.63;;;4.80;99.90;;;;;;5063855;28;20173;-79
2022/02/11 14:29:04;;;;;;;3.33;3.00;;;5.00;99.90;;;;;;5062673;28;20193;-79
2022/02/11 14:31:30;;;;;;;6.27;3.57;;;;;;;;;;5062580;28;20196;-78
2022/02/11 14:33:56;;;;;;;3.30;3.00;;;4.50;99.90;;;;;;5062244;28;20213;-79
2022/02/11 14:36:22;;;;;;;8.47;2.70;;;;;;;;;;5062824;28;20184;-78
2022/02/11 14:38:48;;;;;;;3.23;2.47;;;;;;;;;;5063240;28;20561;-78
2022/02/11 14:43:59;;;;;;;5.50;4.10;;;4.60;99.90;;;;;;5063046;28;20175;-79
2022/02/11 14:46:24;;;;;;;11.90;5.13;;;4.60;99.90;;;;;;5063539;28;20203;-78
2022/02/11 14:48:52;;;;;;;6.33;3.70;;;;;;;;;;5064252;28;20381;-79
2022/02/11 14:51:18;;;;;;;8.27;5.33;;;4.40;99.90;;;;;;5064474;28;20169;-79
2022/02/11 14:53:44;;;;;;;5.40;4.60;;;;;;;;;;5063940;28;20262;-79
2022/02/11 14:56:09;;;;;;;6.30;2.97;;;4.30;99.90;;;;;;5063607;28;20638;-79
2022/02/11 14:58:35;;;;;;;4.80;3.10;;;4.50;99.90;;;;;;5063746;28;20207;-79
2022/02/11 15:01:01;;;;;;;3.83;3.00;;;4.20;99.90;;;;;;5062218;28;20188;-78
2022/02/11 15:03:27;;;;;;;7.93;5.00;;;3.90;99.90;;;;;;5063323;28;20254;-78
2022/02/11 15:05:53;;;;;;;3.97;2.77;;;4.00;99.90;;;;;;5061350;28;20182;-79
2022/02/11 15:08:19;;;;;;;3.70;2.93;;;;;;;;;;5063247;28;20195;-78
2022/02/11 15:10:45;;;;;;;6.30;4.17;;;;;;;;;;5063077;28;20175;-78
2022/02/11 15:13:10;;;;;;;7.43;3.20;;;3.70;99.90;;;;;;5063101;28;20396;-80
2022/02/11 15:15:37;;;;;;;3.83;3.23;;;3.70;99.90;;;;;;5062249;28;20234;-79
2022/02/11 15:18:05;;;;;;;3.77;3.17;;;3.50;99.90;;;;;;5063854;28;20222;-78
2022/02/11 15:20:32;;;;;;;2.80;2.60;;;3.70;99.90;;;;;;5063840;28;20175;-80
2022/02/11 15:22:58;;;;;;;4.33;2.80;;;;;;;;;;5064177;28;20184;-80
2022/02/11 15:25:24;;;;;;;6.00;4.17;;;3.70;99.90;;;;;;5065781;28;20207;-79
2022/02/11 15:27:49;;;;;;;7.17;2.93;;;3.60;99.90;;;;;;5065513;28;20184;-79
2022/02/11 15:30:15;;;;;;;3.70;3.03;;;3.60;99.90;;;;;;5065876;28;20256;-78
2022/02/11 15:32:42;;;;;;;3.77;2.60;;;3.70;99.90;;;;;;5057803;28;20200;-79
2022/02/11 15:35:09;;;;;;;6.70;4.53;;;3.60;99.90;;;;;;5058186;28;20203;-78
2022/02/11 15:37:35;;;;;;;11.20;7.33;;;3.60;99.90;;;;;;5059578;28;20201;-78
2022/02/11 15:40:01;;;;;;;3.50;3.20;;;;;;;;;;5048591;28;20212;-79
2022/02/11 15:42:27;;;;;;;3.20;2.90;;;;;;;;;;5054940;28;20171;-80
2022/02/11 15:44:53;;;;;;;6.30;3.10;;;3.30;99.90;;;;;;5057900;28;20229;-80
2022/02/11 15:47:19;;;;;;;5.53;3.67;;;3.20;99.90;;;;;;5055501;28;20249;-79
2022/02/11 15:49:45;;;;;;;5.57;3.80;;;;;;;;;;5054664;28;20207;-79
2022/02/11 15:52:11;;;;;;;3.07;2.47;;;;;;;;;;5054731;28;20292;-79
2022/02/11 15:54:38;;;;;;;3.83;2.80;;;;;;;;;;5056503;28;20203;-79
2022/02/11 15:57:05;;;;;;;5.00;3.57;;;3.30;99.90;;;;;;5057016;28;20183;-80
2022/02/11 15:59:30;;;;;;;6.90;3.97;;;3.30;99.90;;;;;;5063542;28;20192;-78
2022/02/11 16:01:56;;;;;;;3.90;3.10;;;;;;;;;;5062722;28;20213;-79
2022/02/11 16:04:22;;;;;;;3.73;2.57;;;;;;;;;;5057809;28;20200;-80
2022/02/11 16:06:48;;;;;;;6.17;3.37;;;;;;;;;;5044122;28;20243;-79
2022/02/11 16:09:14;;;;;;;3.90;2.73;;;2.70;99.90;;;;;;5049200;28;20228;-79
2022/02/11 16:11:40;;;;;;;5.90;4.17;;;;;;;;;;5055176;28;20192;-79
2022/02/11 16:14:06;;;;;;;34.47;15.20;;;;;;;;;;5042077;28;20211;-80
2022/02/11 16:16:32;;;;;;;32.43;13.87;;;3.10;99.90;;;;;;5041319;28;20223;-80
2022/02/11 16:18:58;;;;;;;31.93;15.80;;;;;;;;;;5041019;28;20215;-79
2022/02/11 16:21:24;;;;;;;37.10;17.27;;;2.80;99.90;;;;;;5039396;28;20190;-79
2022/02/11 16:23:50;;;;;;;12.30;8.30;;;;;;;;;;5043193;28;20189;-79
2022/02/11 16:26:17;;;;;;;10.53;7.23;;;;;;;;;;5041901;28;20176;-79
2022/02/11 16:28:43;;;;;;;8.80;5.77;;;2.60;99.90;;;;;;5038722;28;20293;-79
2022/02/11 16:31:21;;;;;;;7.43;5.20;;;2.70;99.90;;;;;;5041340;28;20229;-79
2022/02/11 16:33:48;;;;;;;9.50;5.80;;;2.50;99.90;;;;;;5039666;28;20214;-78
2022/02/11 16:36:14;;;;;;;7.03;4.57;;;2.60;99.90;;;;;;5042082;28;20201;-79
2022/02/11 16:38:42;;;;;;;5.60;4.23;;;2.60;99.90;;;;;;5042072;28;20333;-79
2022/02/11 16:41:08;;;;;;;5.43;4.20;;;2.70;99.90;;;;;;5042415;28;20276;-79
2022/02/11 16:43:34;;;;;;;6.17;4.27;;;;;;;;;;5042074;28;20183;-79
2022/02/11 16:46:00;;;;;;;6.10;4.23;;;;;;;;;;5042492;28;20233;-79
2022/02/11 16:48:26;;;;;;;8.87;6.23;;;2.30;99.90;;;;;;5041489;28;20683;-79
2022/02/11 16:50:52;;;;;;;12.87;7.87;;;;;;;;;;5040675;28;20174;-80
2022/02/11 16:53:18;;;;;;;10.67;7.40;;;2.40;99.90;;;;;;5059312;28;20633;-79
2022/02/11 16:55:44;;;;;;;26.13;15.53;;;;;;;;;;5058129;28;20179;-79
2022/02/11 16:58:09;;;;;;;23.23;14.43;;;2.50;99.90;;;;;;5056680;28;20563;-78
2022/02/11 17:00:35;;;;;;;15.50;9.87;;;2.30;99.90;;;;;;5060768;28;20177;-79
2022/02/11 17:03:01;;;;;;;12.33;8.13;;;;;;;;;;5060175;28;20272;-78
2022/02/11 17:05:29;;;;;;;15.10;8.20;;;;;;;;;;5058426;28;20188;-79
2022/02/11 17:07:56;;;;;;;19.23;9.73;;;;;;;;;;5060502;28;20224;-79
2022/02/11 17:10:22;;;;;;;17.90;9.60;;;2.20;99.90;;;;;;5060288;28;20178;-79
2022/02/11 17:12:48;;;;;;;10.47;7.10;;;2.10;99.90;;;;;;5060510;28;20189;-79